createdAt,value
2022-12-29T00:00:00.673Z,0
2022-12-29T00:05:00.645Z,0
2022-12-29T00:10:00.647Z,0
2022-12-29T00:15:00.658Z,0
2022-12-29T00:20:00.695Z,0
2022-12-29T00:25:00.641Z,0
2022-12-29T00:30:00.664Z,0
2022-12-29T00:35:00.782Z,0
2022-12-29T00:40:00.736Z,0
2022-12-29T00:45:00.672Z,0
2022-12-29T00:50:00.688Z,0
2022-12-29T00:55:00.648Z,0
2022-12-29T01:00:00.879Z,0
2022-12-29T01:05:00.851Z,0
2022-12-29T01:10:00.659Z,0
2022-12-29T01:15:00.648Z,0
2022-12-29T01:20:00.663Z,0
2022-12-29T01:25:00.685Z,0
2022-12-29T01:30:01.071Z,0
2022-12-29T01:35:00.648Z,0
2022-12-29T01:40:00.649Z,0
2022-12-29T01:45:00.763Z,0
2022-12-29T01:50:00.648Z,0
2022-12-29T01:55:00.665Z,0
2022-12-29T02:00:00.784Z,0
2022-12-29T02:05:04.468Z,0
2022-12-29T02:10:00.873Z,0
2022-12-29T02:15:00.725Z,0
2022-12-29T02:20:00.659Z,0
2022-12-29T02:25:01.276Z,0
2022-12-29T02:30:00.882Z,0
2022-12-29T02:35:00.656Z,0
2022-12-29T02:40:01.101Z,0
2022-12-29T02:45:00.637Z,0
2022-12-29T02:50:00.710Z,0
2022-12-29T02:55:00.864Z,0
2022-12-29T03:00:00.671Z,0
2022-12-29T03:05:00.694Z,0
2022-12-29T03:10:01.193Z,0
2022-12-29T03:15:00.704Z,0
2022-12-29T03:20:00.752Z,0
2022-12-29T03:25:00.867Z,0
2022-12-29T03:30:00.744Z,0
2022-12-29T03:35:00.782Z,0
2022-12-29T03:40:00.778Z,0
2022-12-29T03:45:00.731Z,0
2022-12-29T03:50:00.701Z,0
2022-12-29T03:55:01.421Z,0
2022-12-29T04:00:00.715Z,0
2022-12-29T04:05:00.831Z,0
2022-12-29T04:10:00.782Z,0
2022-12-29T04:15:02.578Z,0
2022-12-29T04:20:00.795Z,0
2022-12-29T04:25:00.677Z,0
2022-12-29T04:30:00.685Z,0
2022-12-29T04:35:00.708Z,0
2022-12-29T04:40:00.663Z,0
2022-12-29T04:45:00.662Z,0
2022-12-29T04:50:00.725Z,0
2022-12-29T04:55:00.673Z,0
2022-12-29T05:00:00.745Z,0
2022-12-29T05:05:00.667Z,0
2022-12-29T05:10:00.747Z,0
2022-12-29T05:15:00.652Z,0
2022-12-29T05:20:00.688Z,0
2022-12-29T05:25:00.769Z,0
2022-12-29T05:30:00.704Z,0
2022-12-29T05:35:01.039Z,0
2022-12-29T05:40:00.666Z,0
2022-12-29T05:45:00.663Z,0
2022-12-29T05:50:00.707Z,0
2022-12-29T05:55:01.126Z,0
2022-12-29T06:00:00.675Z,0
2022-12-29T06:05:00.704Z,0
2022-12-29T06:10:00.640Z,0
2022-12-29T06:15:00.815Z,0
2022-12-29T06:20:00.689Z,0
2022-12-29T06:25:04.973Z,0
2022-12-29T06:30:00.703Z,0
2022-12-29T06:35:00.686Z,0
2022-12-29T06:40:00.687Z,0
2022-12-29T06:45:00.655Z,0
2022-12-29T06:50:00.641Z,0
2022-12-29T06:55:00.884Z,0
2022-12-29T07:00:00.701Z,0
2022-12-29T07:05:00.732Z,0
2022-12-29T07:10:00.897Z,0
2022-12-29T07:15:00.802Z,0
2022-12-29T07:20:00.641Z,7
2022-12-29T07:25:00.698Z,7
2022-12-29T07:30:00.718Z,7
2022-12-29T07:35:00.652Z,14
2022-12-29T07:40:00.654Z,42
2022-12-29T07:45:00.848Z,48
2022-12-29T07:50:01.059Z,50
2022-12-29T07:55:00.680Z,141
2022-12-29T08:00:00.685Z,275
2022-12-29T08:05:00.697Z,397
2022-12-29T08:10:00.672Z,519
2022-12-29T08:15:00.712Z,661
2022-12-29T08:20:00.645Z,1386
2022-12-29T08:25:00.701Z,507
2022-12-29T08:30:00.769Z,652
2022-12-29T08:35:00.728Z,1066
2022-12-29T08:40:00.646Z,1537
2022-12-29T08:45:00.950Z,1757
2022-12-29T08:50:01.481Z,1757
2022-12-29T08:55:00.745Z,2544
2022-12-29T09:00:00.713Z,2557
2022-12-29T09:05:00.875Z,1342
2022-12-29T09:10:00.686Z,1958
2022-12-29T09:15:00.851Z,1729
2022-12-29T09:20:00.667Z,1194
2022-12-29T09:25:00.798Z,1204
2022-12-29T09:30:00.691Z,1365
2022-12-29T09:35:00.703Z,1365
2022-12-29T09:40:00.836Z,1633
2022-12-29T09:45:00.666Z,1268
2022-12-29T09:50:00.706Z,2791
2022-12-29T09:55:06.275Z,2441
2022-12-29T10:00:00.704Z,845
2022-12-29T10:05:00.675Z,1085
2022-12-29T10:10:00.698Z,1387
2022-12-29T10:15:00.724Z,1078
2022-12-29T10:20:00.639Z,1073
2022-12-29T10:25:02.112Z,1593
2022-12-29T10:30:00.695Z,2395
2022-12-29T10:35:00.668Z,2129
2022-12-29T10:40:00.664Z,2796
2022-12-29T10:45:00.692Z,2148
2022-12-29T10:50:00.638Z,1455
2022-12-29T10:55:00.646Z,1505
2022-12-29T11:00:00.676Z,1492
2022-12-29T11:05:00.666Z,1382
2022-12-29T11:10:00.646Z,1376
2022-12-29T11:15:00.676Z,1699
2022-12-29T11:20:00.636Z,2269
2022-12-29T11:25:00.667Z,1198
2022-12-29T11:30:00.660Z,2029
2022-12-29T11:35:00.651Z,1516
2022-12-29T11:40:00.704Z,2211
2022-12-29T11:45:00.657Z,1497
2022-12-29T11:50:00.726Z,1687
2022-12-29T11:55:00.711Z,2501
2022-12-29T12:00:00.654Z,2321
2022-12-29T12:05:00.655Z,3555
2022-12-29T12:10:06.990Z,2333
2022-12-29T12:15:00.677Z,1833
2022-12-29T12:20:00.841Z,2408
2022-12-29T12:25:00.674Z,2036
2022-12-29T12:30:00.727Z,3691
2022-12-29T12:35:00.668Z,2655
2022-12-29T12:40:00.676Z,2143
2022-12-29T12:45:00.755Z,1678
2022-12-29T12:50:00.642Z,1521
2022-12-29T12:55:00.654Z,2257
2022-12-29T13:00:00.653Z,1534
2022-12-29T13:05:00.875Z,2213
2022-12-29T13:10:01.263Z,2213
2022-12-29T13:15:00.694Z,2489
2022-12-29T13:20:00.642Z,2199
2022-12-29T13:25:01.342Z,1952
2022-12-29T13:30:00.654Z,1952
2022-12-29T13:35:00.672Z,2214
2022-12-29T13:40:00.674Z,1980
2022-12-29T13:45:00.652Z,2177
2022-12-29T13:50:00.646Z,1714
2022-12-29T13:55:01.194Z,1519
2022-12-29T14:00:00.703Z,927
2022-12-29T14:05:01.035Z,562
2022-12-29T14:10:00.719Z,784
2022-12-29T14:15:00.901Z,453
2022-12-29T14:20:00.771Z,593
2022-12-29T14:25:00.769Z,1086
2022-12-29T14:30:00.696Z,963
2022-12-29T14:35:00.765Z,433
2022-12-29T14:40:00.666Z,367
2022-12-29T14:45:00.713Z,310
2022-12-29T14:50:00.651Z,263
2022-12-29T14:55:00.741Z,365
2022-12-29T15:00:00.727Z,309
2022-12-29T15:05:01.278Z,158
2022-12-29T15:10:00.659Z,66
2022-12-29T15:15:00.706Z,78
2022-12-29T15:20:00.663Z,56
2022-12-29T15:25:00.673Z,41
2022-12-29T15:30:00.659Z,27
2022-12-29T15:35:01.370Z,27
2022-12-29T15:40:00.658Z,27
2022-12-29T15:45:10.162Z,20
2022-12-29T15:50:01.051Z,13
2022-12-29T15:55:00.725Z,6
2022-12-29T16:00:00.681Z,6
2022-12-29T16:05:17.346Z,6
2022-12-29T16:10:00.731Z,6
2022-12-29T16:15:00.769Z,6
2022-12-29T16:20:00.717Z,6
2022-12-29T16:25:04.522Z,0
2022-12-29T16:30:00.746Z,0
2022-12-29T16:35:00.712Z,0
2022-12-29T16:40:00.812Z,0
2022-12-29T16:45:00.711Z,0
2022-12-29T16:50:00.740Z,0
2022-12-29T16:55:00.717Z,0
2022-12-29T17:00:00.892Z,0
2022-12-29T17:05:00.897Z,0
2022-12-29T17:10:00.809Z,0
2022-12-29T17:15:01.301Z,0
2022-12-29T17:20:00.766Z,0
2022-12-29T17:25:00.751Z,0
2022-12-29T17:30:00.680Z,0
2022-12-29T17:35:00.704Z,0
2022-12-29T17:40:00.722Z,0
2022-12-29T17:45:00.733Z,0
2022-12-29T17:50:00.729Z,0
2022-12-29T17:55:00.694Z,0
2022-12-29T18:00:00.722Z,0
2022-12-29T18:05:00.686Z,0
2022-12-29T18:10:00.716Z,0
2022-12-29T18:15:01.138Z,0
2022-12-29T18:20:00.707Z,0
2022-12-29T18:25:01.088Z,0
2022-12-29T18:30:01.286Z,0
2022-12-29T18:35:00.715Z,0
2022-12-29T18:40:00.700Z,0
2022-12-29T18:45:02.092Z,0
2022-12-29T18:50:00.760Z,0
2022-12-29T18:55:00.696Z,0
2022-12-29T19:00:00.693Z,0
2022-12-29T19:05:05.207Z,0
2022-12-29T19:10:00.751Z,0
2022-12-29T19:15:00.762Z,0
2022-12-29T19:20:00.651Z,0
2022-12-29T19:25:00.697Z,0
2022-12-29T19:30:00.706Z,0
2022-12-29T19:35:00.677Z,0
2022-12-29T19:40:00.734Z,0
2022-12-29T19:45:00.736Z,0
2022-12-29T19:50:01.239Z,0
2022-12-29T19:55:00.681Z,0
2022-12-29T20:00:00.856Z,0
2022-12-29T20:05:00.738Z,0
2022-12-29T20:10:00.860Z,0
2022-12-29T20:15:00.812Z,0
2022-12-29T20:20:00.776Z,0
2022-12-29T20:25:34.469Z,0
2022-12-29T20:30:01.549Z,0
2022-12-29T20:35:00.680Z,0
2022-12-29T20:40:00.749Z,0
2022-12-29T20:45:00.701Z,0
2022-12-29T20:50:00.684Z,0
2022-12-29T20:55:01.186Z,0
2022-12-29T21:00:00.794Z,0
2022-12-29T21:05:25.288Z,0
2022-12-29T21:10:00.653Z,0
2022-12-29T21:15:00.785Z,0
2022-12-29T21:20:01.049Z,0
2022-12-29T21:25:00.717Z,0
2022-12-29T21:30:00.677Z,0
2022-12-29T21:35:00.652Z,0
2022-12-29T21:40:00.645Z,0
2022-12-29T21:45:00.654Z,0
2022-12-29T21:50:00.667Z,0
2022-12-29T21:55:00.749Z,0
2022-12-29T22:00:00.688Z,0
2022-12-29T22:05:00.919Z,0
2022-12-29T22:10:00.690Z,0
2022-12-29T22:15:00.845Z,0
2022-12-29T22:20:01.339Z,0
2022-12-29T22:25:00.690Z,0
2022-12-29T22:30:00.663Z,0
2022-12-29T22:35:07.231Z,0
2022-12-29T22:40:00.706Z,0
2022-12-29T22:45:00.929Z,0
2022-12-29T22:50:00.673Z,0
2022-12-29T22:55:06.326Z,0
2022-12-29T23:00:01.006Z,0
2022-12-29T23:05:04.045Z,0
2022-12-29T23:10:01.206Z,0
2022-12-29T23:15:00.666Z,0
2022-12-29T23:20:01.614Z,0
2022-12-29T23:25:00.641Z,0
2022-12-29T23:30:00.707Z,0
2022-12-29T23:35:00.645Z,0
2022-12-29T23:40:00.675Z,0
2022-12-29T23:45:00.739Z,0
2022-12-29T23:50:00.658Z,0
2022-12-29T23:55:00.646Z,0
